Time,TemperatureF,DewpointF,PressureIn,WindDirection,WindDirectionDegrees,WindSpeedMPH,WindSpeedGustMPH,Humidity,HourlyPrecipIn,Conditions,Clouds,dailyrainin,SoftwareType,DateUTC
2013-11-14 00:00:00,24.3,22.3,30.41,West,270,0.0,0.0,92,0.00,,---,0.00,VWS V14.01,2013-11-14 05:00:00,
2013-11-14 00:30:00,23.8,22.1,30.40,West,270,0.0,0.0,93,0.00,,---,0.00,VWS V14.01,2013-11-14 05:30:00,
2013-11-14 01:00:00,23.7,22.0,30.39,West,270,0.0,0.0,93,0.00,,---,0.00,VWS V14.01,2013-11-14 06:00:00,
2013-11-14 01:30:00,23.5,21.8,30.39,West,270,0.0,0.0,93,0.00,,---,0.00,VWS V14.01,2013-11-14 06:30:00,
2013-11-14 02:00:00,23.1,21.4,30.38,West,270,0.0,0.0,93,0.00,,---,0.00,VWS V14.01,2013-11-14 07:00:00,
2013-11-14 02:30:00,22.9,21.2,30.38,West,270,0.0,0.0,93,0.00,,---,0.00,VWS V14.01,2013-11-14 07:30:00,
2013-11-14 03:00:00,22.7,21.2,30.38,West,270,0.0,0.0,94,0.00,,---,0.00,VWS V14.01,2013-11-14 08:00:00,
2013-11-14 03:30:00,22.6,20.9,30.38,West,270,0.0,0.0,93,0.00,,---,0.00,VWS V14.01,2013-11-14 08:30:00,
2013-11-14 04:00:00,22.4,20.9,30.38,West,270,0.0,0.0,94,0.00,,---,0.00,VWS V14.01,2013-11-14 09:00:00,
2013-11-14 04:30:00,22.0,20.3,30.37,West,270,0.0,0.0,93,0.00,,---,0.00,VWS V14.01,2013-11-14 09:30:00,
2013-11-14 05:00:00,21.9,20.2,30.38,West,270,0.0,0.0,93,0.00,,---,0.00,VWS V14.01,2013-11-14 10:00:00,
2013-11-14 05:30:00,21.7,20.0,30.38,West,270,0.0,0.0,93,0.00,,---,0.00,VWS V14.01,2013-11-14 10:30:00,
2013-11-14 06:00:00,21.5,19.8,30.38,West,270,0.0,0.0,93,0.00,,---,0.00,VWS V14.01,2013-11-14 11:00:00,
2013-11-14 06:30:00,21.3,19.6,30.39,West,270,0.0,0.0,93,0.00,,---,0.00,VWS V14.01,2013-11-14 11:30:00,
2013-11-14 07:00:00,21.2,19.5,30.40,West,270,0.0,0.0,93,0.00,,---,0.00,VWS V14.01,2013-11-14 12:00:00,
2013-11-14 07:30:00,27.2,25.5,30.41,West,279,0.0,0.0,93,0.00,,---,0.00,VWS V14.01,2013-11-14 12:30:00,
2013-11-14 07:40:00,21.2,19.5,30.40,West,270,0.0,0.0,93,0.00,,---,0.00,VWS V14.01,2013-11-14 12:40:00,
2013-11-14 07:45:00,22.9,21.4,30.41,West,279,0.0,0.0,94,0.00,,---,0.00,VWS V14.01,2013-11-14 12:45:00,
2013-11-14 07:50:00,23.2,21.7,30.40,West,279,0.0,0.0,94,0.00,,---,0.00,VWS V14.01,2013-11-14 12:50:00,
2013-11-14 07:55:00,23.4,21.9,30.41,West,279,0.0,0.0,94,0.00,,---,0.00,VWS V14.01,2013-11-14 12:55:00,
2013-11-14 08:00:00,24.0,22.5,30.41,West,279,0.0,0.0,94,0.00,,---,0.00,VWS V14.01,2013-11-14 13:00:00,
2013-11-14 08:05:00,24.6,23.1,30.41,West,279,0.0,0.0,94,0.00,,---,0.00,VWS V14.01,2013-11-14 13:05:00,
2013-11-14 08:10:00,25.1,23.6,30.41,West,279,0.0,0.0,94,0.00,,---,0.00,VWS V14.01,2013-11-14 13:10:00,
2013-11-14 08:15:00,25.7,24.2,30.41,West,279,0.0,0.0,94,0.00,,---,0.00,VWS V14.01,2013-11-14 13:15:00,
2013-11-14 08:20:00,26.2,24.7,30.41,West,279,0.0,0.0,94,0.00,,---,0.00,VWS V14.01,2013-11-14 13:20:00,
2013-11-14 08:25:00,26.8,25.3,30.41,West,279,0.0,0.0,94,0.00,,---,0.00,VWS V14.01,2013-11-14 13:25:00,
2013-11-14 08:30:00,27.3,25.5,30.41,West,279,0.0,0.0,93,0.00,,---,0.00,VWS V14.01,2013-11-14 13:30:00,
2013-11-14 08:35:00,27.8,25.8,30.41,West,279,0.0,0.0,92,0.00,,---,0.00,VWS V14.01,2013-11-14 13:35:00,
2013-11-14 08:40:00,28.8,26.2,30.41,West,279,0.0,0.0,90,0.00,,---,0.00,VWS V14.01,2013-11-14 13:40:00,
2013-11-14 08:45:00,29.6,26.5,30.41,West,279,0.0,0.0,88,0.00,,---,0.00,VWS V14.01,2013-11-14 13:45:00,
2013-11-14 08:50:00,29.8,26.4,30.41,West,279,0.0,0.0,87,0.00,,---,0.00,VWS V14.01,2013-11-14 13:50:00,
2013-11-14 08:55:00,30.6,26.4,30.41,West,279,0.0,0.0,84,0.00,,---,0.00,VWS V14.01,2013-11-14 13:55:00,
2013-11-14 09:00:00,31.2,26.4,30.41,West,279,0.0,0.0,82,0.00,,---,0.00,VWS V14.01,2013-11-14 14:00:00,
2013-11-14 09:05:00,32.0,26.8,30.42,West,279,0.0,0.0,81,0.00,,---,0.00,VWS V14.01,2013-11-14 14:05:00,
2013-11-14 09:10:00,33.0,27.2,30.41,West,279,0.0,0.0,79,0.00,,---,0.00,VWS V14.01,2013-11-14 14:10:00,
2013-11-14 09:15:00,33.9,27.5,30.42,West,279,0.0,0.0,77,0.00,,---,0.00,VWS V14.01,2013-11-14 14:15:00,
2013-11-14 09:20:00,34.7,27.3,30.41,West,279,0.0,0.0,74,0.00,,---,0.00,VWS V14.01,2013-11-14 14:20:00,
2013-11-14 09:25:00,35.7,27.2,30.41,West,279,0.0,1.0,71,0.00,,---,0.00,VWS V14.01,2013-11-14 14:25:00,
2013-11-14 09:30:00,36.5,27.7,30.41,West,279,0.0,0.0,70,0.00,,---,0.00,VWS V14.01,2013-11-14 14:30:00,
2013-11-14 09:35:00,37.2,27.6,30.41,West,278,0.0,1.0,68,0.00,,---,0.00,VWS V14.01,2013-11-14 14:35:00,
2013-11-14 09:40:00,37.9,27.6,30.41,West,279,0.0,1.0,66,0.00,,---,0.00,VWS V14.01,2013-11-14 14:40:00,
2013-11-14 09:45:00,38.4,27.7,30.41,West,278,0.0,1.0,65,0.00,,---,0.00,VWS V14.01,2013-11-14 14:45:00,
2013-11-14 09:47:00,38.6,27.5,30.41,West,279,0.0,2.0,64,0.00,,---,0.00,VWS V14.01,2013-11-14 14:47:00,
2013-11-14 09:52:00,39.4,27.5,30.41,West,278,0.0,2.0,62,0.00,,---,0.00,VWS V14.01,2013-11-14 14:52:00,
2013-11-14 09:57:00,40.3,27.9,30.41,West,278,0.0,2.0,61,0.00,,---,0.00,VWS V14.01,2013-11-14 14:57:00,
2013-11-14 10:00:00,40.6,27.8,30.41,West,278,1.0,2.0,60,0.00,,---,0.00,VWS V14.01,2013-11-14 15:00:00,
2013-11-14 10:02:00,40.9,27.7,30.41,West,278,0.0,2.0,59,0.00,,---,0.00,VWS V14.01,2013-11-14 15:02:00,
2013-11-14 10:07:00,41.6,27.5,30.41,West,261,0.0,4.0,57,0.00,,---,0.00,VWS V14.01,2013-11-14 15:07:00,
2013-11-14 10:12:00,42.3,27.3,30.41,WSW,250,1.0,4.0,55,0.00,,---,0.00,VWS V14.01,2013-11-14 15:12:00,
2013-11-14 10:17:00,42.8,27.3,30.41,WSW,242,0.0,4.0,54,0.00,,---,0.00,VWS V14.01,2013-11-14 15:17:00,
2013-11-14 10:22:00,43.3,26.4,30.41,WSW,242,0.0,4.0,51,0.00,,---,0.00,VWS V14.01,2013-11-14 15:22:00,
2013-11-14 10:27:00,44.0,27.5,30.41,WSW,242,1.0,4.0,52,0.00,,---,0.00,VWS V14.01,2013-11-14 15:27:00,
2013-11-14 10:30:00,44.4,27.4,30.41,WSW,238,3.0,4.0,51,0.00,,---,0.00,VWS V14.01,2013-11-14 15:30:00,
2013-11-14 10:32:00,44.6,26.6,30.41,SW,215,1.0,3.0,49,0.00,,---,0.00,VWS V14.01,2013-11-14 15:32:00,
2013-11-14 10:37:00,45.1,27.6,30.40,WSW,238,1.0,4.0,50,0.00,,---,0.00,VWS V14.01,2013-11-14 15:37:00,
2013-11-14 10:42:00,45.8,27.7,30.40,SW,224,2.0,4.0,49,0.00,,---,0.00,VWS V14.01,2013-11-14 15:42:00,
2013-11-14 10:47:00,46.1,27.0,30.40,SW,215,1.0,4.0,47,0.00,,---,0.00,VWS V14.01,2013-11-14 15:47:00,
2013-11-14 10:52:00,46.7,29.1,30.40,SW,215,0.0,4.0,50,0.00,,---,0.00,VWS V14.01,2013-11-14 15:52:00,
2013-11-14 10:56:00,47.3,28.1,30.40,West,271,2.0,4.0,47,0.00,,---,0.00,VWS V14.01,2013-11-14 15:56:00,
2013-11-14 11:00:00,47.4,27.7,30.40,West,278,0.0,4.0,46,0.00,,---,0.00,VWS V14.01,2013-11-14 16:00:00,
2013-11-14 11:01:00,47.6,28.4,30.39,West,278,2.0,3.0,47,0.00,,---,0.00,VWS V14.01,2013-11-14 16:01:00,
2013-11-14 11:06:00,48.3,27.4,30.39,SSW,208,2.0,4.0,44,0.00,,---,0.00,VWS V14.01,2013-11-14 16:06:00,
2013-11-14 11:11:00,48.4,28.0,30.39,SSW,213,2.0,4.0,45,0.00,,---,0.00,VWS V14.01,2013-11-14 16:11:00,
2013-11-14 11:16:00,48.7,28.3,30.39,WNW,293,1.0,5.0,45,0.00,,---,0.00,VWS V14.01,2013-11-14 16:16:00,
2013-11-14 11:21:00,49.2,27.7,30.39,West,278,0.0,5.0,43,0.00,,---,0.00,VWS V14.01,2013-11-14 16:21:00,
2013-11-14 11:26:00,49.6,27.5,30.39,SSW,211,1.0,6.0,42,0.00,,---,0.00,VWS V14.01,2013-11-14 16:26:00,
2013-11-14 11:30:00,50.2,26.8,30.39,SW,236,1.0,6.0,40,0.00,,---,0.00,VWS V14.01,2013-11-14 16:30:00,
2013-11-14 11:31:00,50.2,28.0,30.39,SW,231,2.0,3.0,42,0.00,,---,0.00,VWS V14.01,2013-11-14 16:31:00,
2013-11-14 11:36:00,50.3,26.9,30.38,WNW,290,0.0,5.0,40,0.00,,---,0.00,VWS V14.01,2013-11-14 16:36:00,
2013-11-14 11:41:00,50.8,28.0,30.38,WNW,290,3.0,5.0,41,0.00,,---,0.00,VWS V14.01,2013-11-14 16:41:00,
2013-11-14 11:46:00,51.2,27.7,30.38,SSW,208,1.0,5.0,40,0.00,,---,0.00,VWS V14.01,2013-11-14 16:46:00,
2013-11-14 11:51:00,51.6,28.7,30.37,West,278,2.0,5.0,41,0.00,,---,0.00,VWS V14.01,2013-11-14 16:51:00,
2013-11-14 11:56:00,51.5,29.2,30.37,WNW,292,2.0,5.0,42,0.00,,---,0.00,VWS V14.01,2013-11-14 16:56:00,
2013-11-14 12:00:00,51.8,28.3,30.37,SW,217,5.0,5.0,40,0.00,,---,0.00,VWS V14.01,2013-11-14 17:00:00,
2013-11-14 12:01:00,51.8,27.6,30.37,West,269,3.0,5.0,39,0.00,,---,0.00,VWS V14.01,2013-11-14 17:01:00,
2013-11-14 12:06:00,51.8,27.0,30.36,WSW,248,1.0,5.0,38,0.00,,---,0.00,VWS V14.01,2013-11-14 17:06:00,
2013-11-14 12:11:00,52.2,29.2,30.36,WNW,288,0.0,5.0,41,0.00,,---,0.00,VWS V14.01,2013-11-14 17:11:00,
2013-11-14 12:16:00,52.3,28.1,30.36,WNW,294,1.0,5.0,39,0.00,,---,0.00,VWS V14.01,2013-11-14 17:16:00,
2013-11-14 12:21:00,52.8,29.2,30.35,West,280,0.0,5.0,40,0.00,,---,0.00,VWS V14.01,2013-11-14 17:21:00,
2013-11-14 12:26:00,52.9,29.2,30.35,WNW,287,1.0,5.0,40,0.00,,---,0.00,VWS V14.01,2013-11-14 17:26:00,
2013-11-14 12:30:00,53.0,28.1,30.35,WNW,302,1.0,5.0,38,0.00,,---,0.00,VWS V14.01,2013-11-14 17:30:00,
2013-11-14 12:31:00,53.0,28.1,30.35,SW,216,1.0,4.0,38,0.00,,---,0.00,VWS V14.01,2013-11-14 17:31:00,
2013-11-14 12:36:00,53.0,27.4,30.35,WNW,292,5.0,7.0,37,0.00,,---,0.00,VWS V14.01,2013-11-14 17:36:00,
2013-11-14 12:41:00,53.3,27.0,30.35,WNW,284,4.0,7.0,36,0.00,,---,0.00,VWS V14.01,2013-11-14 17:41:00,
2013-11-14 12:46:00,53.4,28.5,30.34,SW,223,0.0,7.0,38,0.00,,---,0.00,VWS V14.01,2013-11-14 17:46:00,
2013-11-14 12:51:00,54.1,28.4,30.34,West,275,1.0,7.0,37,0.00,,---,0.00,VWS V14.01,2013-11-14 17:51:00,
2013-11-14 12:56:00,54.1,27.1,30.34,SW,235,5.0,7.0,35,0.00,,---,0.00,VWS V14.01,2013-11-14 17:56:00,
2013-11-14 13:00:00,54.1,27.8,30.34,SW,234,1.0,7.0,36,0.00,,---,0.00,VWS V14.01,2013-11-14 18:00:00,
2013-11-14 13:01:00,54.1,28.4,30.34,WSW,257,1.0,3.0,37,0.00,,---,0.00,VWS V14.01,2013-11-14 18:01:00,
2013-11-14 13:06:00,54.2,27.2,30.33,SW,222,1.0,7.0,35,0.00,,---,0.00,VWS V14.01,2013-11-14 18:06:00,
2013-11-14 13:11:00,54.2,27.2,30.33,SW,226,2.0,7.0,35,0.00,,---,0.00,VWS V14.01,2013-11-14 18:11:00,
2013-11-14 13:16:00,54.3,27.9,30.33,NW,323,2.0,7.0,36,0.00,,---,0.00,VWS V14.01,2013-11-14 18:16:00,
2013-11-14 13:21:00,54.9,27.8,30.33,West,273,3.0,7.0,35,0.00,,---,0.00,VWS V14.01,2013-11-14 18:21:00,
2013-11-14 13:26:00,55.4,28.2,30.33,West,272,1.0,7.0,35,0.00,,---,0.00,VWS V14.01,2013-11-14 18:26:00,
2013-11-14 13:30:00,55.7,27.8,30.32,West,281,4.0,7.0,34,0.00,,---,0.00,VWS V14.01,2013-11-14 18:30:00,
2013-11-14 13:31:00,55.7,27.1,30.32,West,279,1.0,4.0,33,0.00,,---,0.00,VWS V14.01,2013-11-14 18:31:00,
2013-11-14 13:36:00,55.8,27.1,30.32,NNW,327,2.0,5.0,33,0.00,,---,0.00,VWS V14.01,2013-11-14 18:36:00,
2013-11-14 13:41:00,55.9,26.5,30.32,West,259,3.0,5.0,32,0.00,,---,0.00,VWS V14.01,2013-11-14 18:41:00,
2013-11-14 13:46:00,56.0,26.6,30.31,SW,220,1.0,5.0,32,0.00,,---,0.00,VWS V14.01,2013-11-14 18:46:00,
2013-11-14 13:51:00,56.3,26.8,30.31,West,261,5.0,5.0,32,0.00,,---,0.00,VWS V14.01,2013-11-14 18:51:00,
2013-11-14 13:56:00,56.4,26.9,30.31,West,267,4.0,7.0,32,0.00,,---,0.00,VWS V14.01,2013-11-14 18:56:00,
2013-11-14 14:00:00,56.4,26.2,30.31,WSW,258,2.0,7.0,31,0.00,,---,0.00,VWS V14.01,2013-11-14 19:00:00,
2013-11-14 14:01:00,56.3,26.8,30.31,SW,226,2.0,3.0,32,0.00,,---,0.00,VWS V14.01,2013-11-14 19:01:00,
2013-11-14 14:06:00,56.5,27.8,30.30,West,262,1.0,5.0,33,0.00,,---,0.00,VWS V14.01,2013-11-14 19:06:00,
2013-11-14 14:11:00,56.8,28.0,30.30,West,278,2.0,5.0,33,0.00,,---,0.00,VWS V14.01,2013-11-14 19:11:00,
2013-11-14 14:16:00,56.9,26.6,30.31,WSW,257,2.0,5.0,31,0.00,,---,0.00,VWS V14.01,2013-11-14 19:16:00,
2013-11-14 14:21:00,56.9,26.6,30.30,WSW,252,2.0,5.0,31,0.00,,---,0.00,VWS V14.01,2013-11-14 19:21:00,
2013-11-14 14:26:00,57.2,29.1,30.30,West,274,0.0,5.0,34,0.00,,---,0.00,VWS V14.01,2013-11-14 19:26:00,
2013-11-14 14:30:00,57.1,29.0,30.30,West,274,3.0,5.0,34,0.00,,---,0.00,VWS V14.01,2013-11-14 19:30:00,
2013-11-14 14:31:00,57.0,28.2,30.30,West,271,6.0,6.0,33,0.00,,---,0.00,VWS V14.01,2013-11-14 19:31:00,
2013-11-14 14:36:00,57.1,28.3,30.30,West,267,2.0,6.0,33,0.00,,---,0.00,VWS V14.01,2013-11-14 19:36:00,
2013-11-14 14:41:00,57.1,27.5,30.30,West,270,1.0,6.0,32,0.00,,---,0.00,VWS V14.01,2013-11-14 19:41:00,
2013-11-14 14:46:00,57.2,28.4,30.30,West,269,1.0,6.0,33,0.00,,---,0.00,VWS V14.01,2013-11-14 19:46:00,
2013-11-14 14:51:00,57.4,27.8,30.30,SE,137,2.0,6.0,32,0.00,,---,0.00,VWS V14.01,2013-11-14 19:51:00,
2013-11-14 14:56:00,57.0,26.7,30.30,West,262,2.0,6.0,31,0.00,,---,0.00,VWS V14.01,2013-11-14 19:56:00,
2013-11-14 15:00:00,56.8,26.5,30.30,West,262,0.0,6.0,31,0.00,,---,0.00,VWS V14.01,2013-11-14 20:00:00,
2013-11-14 15:01:00,56.8,27.3,30.30,SW,233,3.0,7.0,32,0.00,,---,0.00,VWS V14.01,2013-11-14 20:01:00,
2013-11-14 15:06:00,56.6,26.3,30.30,West,274,3.0,7.0,31,0.00,,---,0.00,VWS V14.01,2013-11-14 20:06:00,
2013-11-14 15:11:00,56.5,25.5,30.30,West,280,3.0,7.0,30,0.00,,---,0.00,VWS V14.01,2013-11-14 20:11:00,
2013-11-14 15:16:00,56.6,26.3,30.30,WNW,282,1.0,7.0,31,0.00,,---,0.00,VWS V14.01,2013-11-14 20:16:00,
2013-11-14 15:21:00,56.6,27.1,30.30,WNW,284,4.0,7.0,32,0.00,,---,0.00,VWS V14.01,2013-11-14 20:21:00,
2013-11-14 15:26:00,56.4,26.2,30.30,West,279,3.0,7.0,31,0.00,,---,0.00,VWS V14.01,2013-11-14 20:26:00,
2013-11-14 15:30:00,56.1,28.1,30.30,NW,319,1.0,7.0,34,0.00,,---,0.00,VWS V14.01,2013-11-14 20:30:00,
2013-11-14 15:31:00,56.0,28.8,30.30,NW,319,0.0,1.0,35,0.00,,---,0.00,VWS V14.01,2013-11-14 20:31:00,
2013-11-14 15:36:00,55.7,28.5,30.30,NW,319,0.0,3.0,35,0.00,,---,0.00,VWS V14.01,2013-11-14 20:36:00,
2013-11-14 15:41:00,56.1,27.4,30.30,West,277,2.0,3.0,33,0.00,,---,0.00,VWS V14.01,2013-11-14 20:41:00,
2013-11-14 15:46:00,56.1,26.7,30.30,West,261,2.0,6.0,32,0.00,,---,0.00,VWS V14.01,2013-11-14 20:46:00,
2013-11-14 15:51:00,56.0,27.3,30.30,West,261,1.0,6.0,33,0.00,,---,0.00,VWS V14.01,2013-11-14 20:51:00,
2013-11-14 15:56:00,55.5,27.6,30.30,West,261,0.0,6.0,34,0.00,,---,0.00,VWS V14.01,2013-11-14 20:56:00,
2013-11-14 16:00:00,55.1,28.0,30.30,West,261,0.0,6.0,35,0.00,,---,0.00,VWS V14.01,2013-11-14 21:00:00,
2013-11-14 16:01:00,54.9,28.5,30.30,West,261,0.0,1.0,36,0.00,,---,0.00,VWS V14.01,2013-11-14 21:01:00,
2013-11-14 16:06:00,54.6,28.2,30.30,West,270,2.0,3.0,36,0.00,,---,0.00,VWS V14.01,2013-11-14 21:06:00,
2013-11-14 16:11:00,54.4,28.0,30.29,West,272,1.0,3.0,36,0.00,,---,0.00,VWS V14.01,2013-11-14 21:11:00,
2013-11-14 16:16:00,54.1,28.4,30.29,West,272,0.0,3.0,37,0.00,,---,0.00,VWS V14.01,2013-11-14 21:16:00,
2013-11-14 16:21:00,54.0,27.7,30.29,West,271,0.0,3.0,36,0.00,,---,0.00,VWS V14.01,2013-11-14 21:21:00,
2013-11-14 16:26:00,53.2,29.5,30.29,West,271,0.0,3.0,40,0.00,,---,0.00,VWS V14.01,2013-11-14 21:26:00,
2013-11-14 16:30:00,52.6,30.2,30.29,West,271,0.0,3.0,42,0.00,,---,0.00,VWS V14.01,2013-11-14 21:30:00,
2013-11-14 16:31:00,52.2,32.1,30.29,West,271,0.0,0.0,46,0.00,,---,0.00,VWS V14.01,2013-11-14 21:31:00,
2013-11-14 16:36:00,51.6,28.7,30.28,West,271,0.0,0.0,41,0.00,,---,0.00,VWS V14.01,2013-11-14 21:36:00,
2013-11-14 16:41:00,51.5,28.0,30.28,West,271,0.0,0.0,40,0.00,,---,0.00,VWS V14.01,2013-11-14 21:41:00,
2013-11-14 16:46:00,50.8,28.5,30.28,West,271,0.0,1.0,42,0.00,,---,0.00,VWS V14.01,2013-11-14 21:46:00,
2013-11-14 16:51:00,50.0,30.6,30.28,West,271,0.0,1.0,47,0.00,,---,0.00,VWS V14.01,2013-11-14 21:51:00,
2013-11-14 16:56:00,50.0,30.6,30.28,West,271,0.0,1.0,47,0.00,,---,0.00,VWS V14.01,2013-11-14 21:56:00,
2013-11-14 17:00:00,50.0,30.6,30.28,West,271,0.0,1.0,47,0.00,,---,0.00,VWS V14.01,2013-11-14 22:00:00,
2013-11-14 17:01:00,50.0,30.6,30.28,West,271,0.0,0.0,47,0.00,,---,0.00,VWS V14.01,2013-11-14 22:01:00,
2013-11-14 17:06:00,50.0,30.6,30.28,West,271,0.0,0.0,47,0.00,,---,0.00,VWS V14.01,2013-11-14 22:06:00,
2013-11-14 17:11:00,50.0,30.6,30.28,West,271,0.0,0.0,47,0.00,,---,0.00,VWS V14.01,2013-11-14 22:11:00,
2013-11-14 17:16:00,50.0,30.6,30.28,West,271,0.0,0.0,47,0.00,,---,0.00,VWS V14.01,2013-11-14 22:16:00,
2013-11-14 17:21:00,50.0,30.6,30.29,West,271,0.0,0.0,47,0.00,,---,0.00,VWS V14.01,2013-11-14 22:21:00,
2013-11-14 17:26:00,50.0,30.6,30.29,West,271,0.0,0.0,47,0.00,,---,0.00,VWS V14.01,2013-11-14 22:26:00,
2013-11-14 17:30:00,50.0,30.6,30.29,West,271,0.0,0.0,47,0.00,,---,0.00,VWS V14.01,2013-11-14 22:30:00,
2013-11-14 17:31:00,50.0,30.6,30.29,West,271,0.0,0.0,47,0.00,,---,0.00,VWS V14.01,2013-11-14 22:31:00,
2013-11-14 17:36:00,50.0,30.6,30.29,West,271,0.0,0.0,47,0.00,,---,0.00,VWS V14.01,2013-11-14 22:36:00,
2013-11-14 17:41:00,50.0,30.6,30.29,West,271,0.0,0.0,47,0.00,,---,0.00,VWS V14.01,2013-11-14 22:41:00,
2013-11-14 17:46:00,50.0,30.6,30.29,West,271,0.0,0.0,47,0.00,,---,0.00,VWS V14.01,2013-11-14 22:46:00,
2013-11-14 17:51:00,50.0,30.6,30.29,West,271,0.0,0.0,47,0.00,,---,0.00,VWS V14.01,2013-11-14 22:51:00,
2013-11-14 17:56:00,50.0,30.6,30.29,West,271,0.0,0.0,47,0.00,,---,0.00,VWS V14.01,2013-11-14 22:56:00,
2013-11-14 18:00:00,50.0,30.6,30.28,West,271,0.0,0.0,47,0.00,,---,0.00,VWS V14.01,2013-11-14 23:00:00,
2013-11-14 18:01:00,50.0,30.6,30.29,West,271,0.0,0.0,47,0.00,,---,0.00,VWS V14.01,2013-11-14 23:01:00,
2013-11-14 18:06:00,50.0,30.6,30.29,West,271,0.0,0.0,47,0.00,,---,0.00,VWS V14.01,2013-11-14 23:06:00,
2013-11-14 18:11:00,50.0,30.6,30.29,West,271,0.0,0.0,47,0.00,,---,0.00,VWS V14.01,2013-11-14 23:11:00,
2013-11-14 18:16:00,50.0,30.6,30.29,West,271,0.0,0.0,47,0.00,,---,0.00,VWS V14.01,2013-11-14 23:16:00,
2013-11-14 18:21:00,50.0,30.6,30.29,West,271,0.0,0.0,47,0.00,,---,0.00,VWS V14.01,2013-11-14 23:21:00,
2013-11-14 18:26:00,50.0,30.6,30.28,West,271,0.0,0.0,47,0.00,,---,0.00,VWS V14.01,2013-11-14 23:26:00,
2013-11-14 18:30:00,50.0,30.6,30.28,West,271,0.0,0.0,47,0.00,,---,0.00,VWS V14.01,2013-11-14 23:30:00,
2013-11-14 18:31:00,50.0,30.6,30.28,West,271,0.0,0.0,47,0.00,,---,0.00,VWS V14.01,2013-11-14 23:31:00,
2013-11-14 18:36:00,50.0,30.6,30.28,West,271,0.0,0.0,47,0.00,,---,0.00,VWS V14.01,2013-11-14 23:36:00,
2013-11-14 18:41:00,50.0,30.6,30.28,West,271,0.0,0.0,47,0.00,,---,0.00,VWS V14.01,2013-11-14 23:41:00,
2013-11-14 18:46:00,50.0,30.6,30.28,West,271,0.0,0.0,47,0.00,,---,0.00,VWS V14.01,2013-11-14 23:46:00,
2013-11-14 18:51:00,50.0,30.6,30.28,West,271,0.0,0.0,47,0.00,,---,0.00,VWS V14.01,2013-11-14 23:51:00,
2013-11-14 18:56:00,50.0,30.6,30.28,West,271,0.0,0.0,47,0.00,,---,0.00,VWS V14.01,2013-11-14 23:56:00,
2013-11-14 19:00:00,50.0,30.6,30.28,West,271,0.0,0.0,47,0.00,,---,0.00,VWS V14.01,2013-11-15 00:00:00,
2013-11-14 19:01:00,50.0,30.6,30.28,West,271,0.0,0.0,47,0.00,,---,0.00,VWS V14.01,2013-11-15 00:01:00,
2013-11-14 19:06:00,50.0,30.6,30.28,West,271,0.0,0.0,47,0.00,,---,0.00,VWS V14.01,2013-11-15 00:06:00,
2013-11-14 19:11:00,50.0,30.6,30.28,West,271,0.0,0.0,47,0.00,,---,0.00,VWS V14.01,2013-11-15 00:11:00,
2013-11-14 19:16:00,50.0,30.6,30.28,West,271,0.0,0.0,47,0.00,,---,0.00,VWS V14.01,2013-11-15 00:16:00,
2013-11-14 19:21:00,50.0,30.6,30.28,West,271,0.0,0.0,47,0.00,,---,0.00,VWS V14.01,2013-11-15 00:21:00,
2013-11-14 19:26:00,50.0,30.6,30.28,West,271,0.0,0.0,47,0.00,,---,0.00,VWS V14.01,2013-11-15 00:26:00,
2013-11-14 19:30:00,50.0,30.6,30.28,West,271,0.0,0.0,47,0.00,,---,0.00,VWS V14.01,2013-11-15 00:30:00,
2013-11-14 19:31:00,50.0,30.6,30.28,West,271,0.0,0.0,47,0.00,,---,0.00,VWS V14.01,2013-11-15 00:31:00,
2013-11-14 19:36:00,50.0,30.6,30.28,West,271,0.0,0.0,47,0.00,,---,0.00,VWS V14.01,2013-11-15 00:36:00,
2013-11-14 19:41:00,50.0,30.6,30.28,West,271,0.0,0.0,47,0.00,,---,0.00,VWS V14.01,2013-11-15 00:41:00,
2013-11-14 19:46:00,50.0,30.6,30.28,West,271,0.0,0.0,47,0.00,,---,0.00,VWS V14.01,2013-11-15 00:46:00,
2013-11-14 19:51:00,50.0,30.6,30.28,West,271,0.0,0.0,47,0.00,,---,0.00,VWS V14.01,2013-11-15 00:51:00,
2013-11-14 19:56:00,50.0,30.6,30.28,West,271,0.0,0.0,47,0.00,,---,0.00,VWS V14.01,2013-11-15 00:56:00,
2013-11-14 20:00:00,50.0,30.6,30.29,West,271,0.0,0.0,47,0.00,,---,0.00,VWS V14.01,2013-11-15 01:00:00,
2013-11-14 20:01:00,50.0,30.6,30.29,West,271,0.0,0.0,47,0.00,,---,0.00,VWS V14.01,2013-11-15 01:01:00,
2013-11-14 20:06:00,50.0,30.6,30.29,West,271,0.0,0.0,47,0.00,,---,0.00,VWS V14.01,2013-11-15 01:06:00,
2013-11-14 20:11:00,50.0,30.6,30.29,West,271,0.0,0.0,47,0.00,,---,0.00,VWS V14.01,2013-11-15 01:11:00,
2013-11-14 20:16:00,50.0,30.6,30.28,West,271,0.0,0.0,47,0.00,,---,0.00,VWS V14.01,2013-11-15 01:16:00,
2013-11-14 20:21:00,50.0,30.6,30.29,West,271,0.0,0.0,47,0.00,,---,0.00,VWS V14.01,2013-11-15 01:21:00,
2013-11-14 20:26:00,50.0,30.6,30.29,West,271,0.0,0.0,47,0.00,,---,0.00,VWS V14.01,2013-11-15 01:26:00,
2013-11-14 20:30:00,50.0,30.6,30.29,West,271,0.0,0.0,47,0.00,,---,0.00,VWS V14.01,2013-11-15 01:30:00,
2013-11-14 20:31:00,50.0,30.6,30.29,West,271,0.0,0.0,47,0.00,,---,0.00,VWS V14.01,2013-11-15 01:31:00,
2013-11-14 20:36:00,50.0,30.6,30.29,West,271,0.0,0.0,47,0.00,,---,0.00,VWS V14.01,2013-11-15 01:36:00,
2013-11-14 20:41:00,50.0,30.6,30.29,West,271,0.0,0.0,47,0.00,,---,0.00,VWS V14.01,2013-11-15 01:41:00,
2013-11-14 20:46:00,50.0,30.6,30.29,West,271,0.0,0.0,47,0.00,,---,0.00,VWS V14.01,2013-11-15 01:46:00,
2013-11-14 20:51:00,50.0,30.6,30.29,West,271,0.0,0.0,47,0.00,,---,0.00,VWS V14.01,2013-11-15 01:51:00,
2013-11-14 20:56:00,50.0,30.6,30.29,West,271,0.0,0.0,47,0.00,,---,0.00,VWS V14.01,2013-11-15 01:56:00,
2013-11-14 21:00:00,50.0,30.6,30.29,West,271,0.0,0.0,47,0.00,,---,0.00,VWS V14.01,2013-11-15 02:00:00,
2013-11-14 21:01:00,50.0,30.6,30.29,West,271,0.0,0.0,47,0.00,,---,0.00,VWS V14.01,2013-11-15 02:01:00,
2013-11-14 21:06:00,50.0,30.6,30.29,West,271,0.0,0.0,47,0.00,,---,0.00,VWS V14.01,2013-11-15 02:06:00,
2013-11-14 21:11:00,50.0,30.6,30.29,West,271,0.0,0.0,47,0.00,,---,0.00,VWS V14.01,2013-11-15 02:11:00,
2013-11-14 21:16:00,50.0,30.6,30.29,West,271,0.0,0.0,47,0.00,,---,0.00,VWS V14.01,2013-11-15 02:16:00,
2013-11-14 21:21:00,50.0,30.6,30.28,West,271,0.0,0.0,47,0.00,,---,0.00,VWS V14.01,2013-11-15 02:21:00,
2013-11-14 21:26:00,50.0,30.6,30.28,West,271,0.0,0.0,47,0.00,,---,0.00,VWS V14.01,2013-11-15 02:26:00,
2013-11-14 21:30:00,50.0,30.6,30.28,West,271,0.0,0.0,47,0.00,,---,0.00,VWS V14.01,2013-11-15 02:30:00,
2013-11-14 21:31:00,50.0,30.6,30.28,West,271,0.0,0.0,47,0.00,,---,0.00,VWS V14.01,2013-11-15 02:31:00,
2013-11-14 21:36:00,50.0,30.6,30.28,West,271,0.0,0.0,47,0.00,,---,0.00,VWS V14.01,2013-11-15 02:36:00,
2013-11-14 21:41:00,50.0,30.6,30.28,West,271,0.0,0.0,47,0.00,,---,0.00,VWS V14.01,2013-11-15 02:41:00,
2013-11-14 21:46:00,50.0,30.6,30.28,West,271,0.0,0.0,47,0.00,,---,0.00,VWS V14.01,2013-11-15 02:46:00,
2013-11-14 21:51:00,50.0,30.6,30.29,West,271,0.0,0.0,47,0.00,,---,0.00,VWS V14.01,2013-11-15 02:51:00,
2013-11-14 21:56:00,50.0,30.6,30.29,West,271,0.0,0.0,47,0.00,,---,0.00,VWS V14.01,2013-11-15 02:56:00,
2013-11-14 22:00:00,50.0,30.6,30.29,West,271,0.0,0.0,47,0.00,,---,0.00,VWS V14.01,2013-11-15 03:00:00,
2013-11-14 22:01:00,50.0,30.6,30.29,West,271,0.0,0.0,47,0.00,,---,0.00,VWS V14.01,2013-11-15 03:01:00,
2013-11-14 22:06:00,50.0,30.6,30.29,West,271,0.0,0.0,47,0.00,,---,0.00,VWS V14.01,2013-11-15 03:06:00,
2013-11-14 22:11:00,50.0,30.6,30.29,West,271,0.0,0.0,47,0.00,,---,0.00,VWS V14.01,2013-11-15 03:11:00,
2013-11-14 22:16:00,50.0,30.6,30.29,West,271,0.0,0.0,47,0.00,,---,0.00,VWS V14.01,2013-11-15 03:16:00,
2013-11-14 22:21:00,50.0,30.6,30.29,West,271,0.0,0.0,47,0.00,,---,0.00,VWS V14.01,2013-11-15 03:21:00,
2013-11-14 22:26:00,50.0,30.6,30.29,West,271,0.0,0.0,47,0.00,,---,0.00,VWS V14.01,2013-11-15 03:26:00,
2013-11-14 22:30:00,50.0,30.6,30.29,West,271,0.0,0.0,47,0.00,,---,0.00,VWS V14.01,2013-11-15 03:30:00,
2013-11-14 22:31:00,50.0,30.6,30.29,West,271,0.0,0.0,47,0.00,,---,0.00,VWS V14.01,2013-11-15 03:31:00,
2013-11-14 22:36:00,50.0,30.6,30.29,West,271,0.0,0.0,47,0.00,,---,0.00,VWS V14.01,2013-11-15 03:36:00,
2013-11-14 22:41:00,50.0,30.6,30.28,West,271,0.0,0.0,47,0.00,,---,0.00,VWS V14.01,2013-11-15 03:41:00,
2013-11-14 22:46:00,50.0,30.6,30.29,West,271,0.0,0.0,47,0.00,,---,0.00,VWS V14.01,2013-11-15 03:46:00,
2013-11-14 22:51:00,50.0,30.6,30.29,West,271,0.0,0.0,47,0.00,,---,0.00,VWS V14.01,2013-11-15 03:51:00,
2013-11-14 22:56:00,50.0,30.6,30.29,West,271,0.0,0.0,47,0.00,,---,0.00,VWS V14.01,2013-11-15 03:56:00,
2013-11-14 23:00:00,50.0,30.6,30.29,West,271,0.0,0.0,47,0.00,,---,0.00,VWS V14.01,2013-11-15 04:00:00,
2013-11-14 23:01:00,50.0,30.6,30.29,West,271,0.0,0.0,47,0.00,,---,0.00,VWS V14.01,2013-11-15 04:01:00,
2013-11-14 23:06:00,50.0,30.6,30.29,West,271,0.0,0.0,47,0.00,,---,0.00,VWS V14.01,2013-11-15 04:06:00,
2013-11-14 23:11:00,50.0,30.6,30.28,West,271,0.0,0.0,47,0.00,,---,0.00,VWS V14.01,2013-11-15 04:11:00,
2013-11-14 23:16:00,50.0,30.6,30.29,West,271,0.0,0.0,47,0.00,,---,0.00,VWS V14.01,2013-11-15 04:16:00,
2013-11-14 23:21:00,50.0,30.6,30.28,West,271,0.0,0.0,47,0.00,,---,0.00,VWS V14.01,2013-11-15 04:21:00,
2013-11-14 23:26:00,50.0,30.6,30.29,West,271,0.0,0.0,47,0.00,,---,0.00,VWS V14.01,2013-11-15 04:26:00,
2013-11-14 23:30:00,50.0,30.6,30.29,West,271,0.0,0.0,47,0.00,,---,0.00,VWS V14.01,2013-11-15 04:30:00,
2013-11-14 23:31:00,50.0,30.6,30.28,West,271,0.0,0.0,47,0.00,,---,0.00,VWS V14.01,2013-11-15 04:31:00,
2013-11-14 23:36:00,50.0,30.6,30.29,West,271,0.0,0.0,47,0.00,,---,0.00,VWS V14.01,2013-11-15 04:36:00,
2013-11-14 23:41:00,50.0,30.6,30.29,West,271,0.0,0.0,47,0.00,,---,0.00,VWS V14.01,2013-11-15 04:41:00,
2013-11-14 23:46:00,50.0,30.6,30.29,West,271,0.0,0.0,47,0.00,,---,0.00,VWS V14.01,2013-11-15 04:46:00,
2013-11-14 23:51:00,50.0,30.6,30.30,West,271,0.0,0.0,47,0.00,,---,0.00,VWS V14.01,2013-11-15 04:51:00,
2013-11-14 23:56:00,50.0,30.6,30.29,West,271,0.0,0.0,47,0.00,,---,0.00,VWS V14.01,2013-11-15 04:56:00,